Augusta, West Virginia
Current Conditions -  °F | °C
As of 2:52 AM on Friday 19 Dec 2014 (Local Time) from KCBE Reporting Station
Overcast Overcast  
Wind Chill:   Ceiling: 2800
Heat Index:   Visibility: 10mi
Dew Point: -6°   Wind: 0mph
Humidity: 64%   Direction: NA
Pressure: 30.18"   Gusts: NA
Location:  39.3°N, 78.64°W
Report Text: KCBE 190752Z AUTO 00000KT 10SM OVC028 00/M06 A3018 RMK AO1
Loading
Personal Weather Stations






























Interactive Weather Map New forecast layout! Learn more

10-Day Weather Forecast

Advertisements
Track Severe Weather on mobile